createdAt,value
2023-05-12T00:02:13.132Z,12.31
2023-05-12T00:04:40.616Z,12.30
2023-05-12T00:07:07.452Z,12.32
2023-05-12T00:09:34.022Z,12.30
2023-05-12T00:12:01.484Z,12.32
2023-05-12T00:14:28.222Z,12.33
2023-05-12T00:16:54.794Z,12.35
2023-05-12T00:19:21.394Z,12.35
2023-05-12T00:21:48.104Z,12.37
2023-05-12T00:24:14.686Z,12.39
2023-05-12T00:26:41.470Z,12.39
2023-05-12T00:29:08.384Z,12.39
2023-05-12T00:31:35.009Z,12.39
2023-05-12T00:34:01.523Z,12.39
2023-05-12T00:36:28.115Z,12.39
2023-05-12T00:38:54.681Z,12.39
2023-05-12T00:41:21.214Z,12.41
2023-05-12T00:43:47.768Z,12.41
2023-05-12T00:46:14.463Z,12.47
2023-05-12T00:48:41.106Z,12.50
2023-05-12T00:51:08.728Z,12.51
2023-05-12T00:53:48.359Z,12.55
2023-05-12T00:56:20.386Z,12.57
2023-05-12T00:58:47.557Z,12.58
2023-05-12T01:01:14.140Z,12.58
2023-05-12T01:03:40.943Z,12.60
2023-05-12T01:06:16.648Z,12.59
2023-05-12T01:08:44.000Z,12.62
2023-05-12T01:11:10.555Z,12.61
2023-05-12T01:13:39.476Z,12.65
2023-05-12T01:16:09.539Z,12.67
2023-05-12T01:18:38.633Z,12.70
2023-05-12T01:21:06.019Z,12.71
2023-05-12T01:23:37.798Z,12.70
2023-05-12T01:26:09.363Z,12.74
2023-05-12T01:28:37.124Z,12.76
2023-05-12T01:31:05.961Z,12.74
2023-05-12T01:33:34.068Z,12.76
2023-05-12T01:36:00.748Z,12.75
2023-05-12T01:38:27.684Z,12.62
2023-05-12T01:40:54.209Z,12.30
2023-05-12T01:43:22.181Z,11.99
2023-05-12T01:45:48.978Z,11.88
2023-05-12T01:48:15.676Z,11.87
2023-05-12T01:50:42.569Z,11.82
2023-05-12T01:53:12.455Z,11.79
2023-05-12T01:55:39.103Z,11.75
2023-05-12T01:58:05.814Z,11.74
2023-05-12T02:00:32.362Z,11.75
2023-05-12T02:02:58.983Z,11.72
2023-05-12T02:05:26.066Z,11.74
2023-05-12T02:07:52.601Z,11.72
2023-05-12T02:10:19.360Z,11.70
2023-05-12T02:12:46.250Z,11.72
2023-05-12T02:15:12.923Z,11.75
2023-05-12T02:17:39.493Z,11.78
2023-05-12T02:20:06.883Z,11.80
2023-05-12T02:22:33.410Z,11.83
2023-05-12T02:25:00.188Z,11.87
2023-05-12T02:27:26.716Z,11.89
2023-05-12T02:29:54.058Z,11.91
2023-05-12T02:32:21.673Z,11.91
2023-05-12T02:34:48.262Z,11.90
2023-05-12T02:37:14.747Z,11.90
2023-05-12T02:39:41.434Z,11.87
2023-05-12T02:42:07.972Z,11.83
2023-05-12T02:44:34.444Z,11.80
2023-05-12T02:47:01.153Z,11.82
2023-05-12T02:49:27.726Z,11.78
2023-05-12T02:51:55.320Z,11.74
2023-05-12T02:54:21.803Z,11.69
2023-05-12T02:56:48.509Z,11.63
2023-05-12T02:59:15.004Z,11.62
2023-05-12T03:01:41.515Z,11.61
2023-05-12T03:04:08.164Z,11.60
2023-05-12T03:06:34.668Z,11.58
2023-05-12T03:09:01.393Z,11.56
2023-05-12T03:11:27.948Z,11.51
2023-05-12T03:13:54.464Z,11.47
2023-05-12T03:16:21.073Z,11.46
2023-05-12T03:18:47.725Z,11.45
2023-05-12T03:21:14.263Z,11.37
2023-05-12T03:23:40.808Z,11.37
2023-05-12T03:26:07.558Z,11.34
2023-05-12T03:28:34.085Z,11.32
2023-05-12T03:31:00.635Z,11.27
2023-05-12T03:33:27.216Z,11.22
2023-05-12T03:35:54.097Z,11.17
2023-05-12T03:38:20.571Z,11.21
2023-05-12T03:40:52.826Z,11.19
2023-05-12T03:43:19.795Z,11.18
2023-05-12T03:45:46.559Z,11.12
2023-05-12T03:48:13.311Z,11.15
2023-05-12T03:50:40.053Z,11.13
2023-05-12T03:53:06.536Z,11.15
2023-05-12T03:55:33.283Z,11.12
2023-05-12T03:57:59.803Z,11.14
2023-05-12T04:00:26.451Z,11.12
2023-05-12T04:02:53.522Z,11.10
2023-05-12T04:05:20.772Z,11.09
2023-05-12T04:07:47.280Z,11.04
2023-05-12T04:10:13.952Z,11.01
2023-05-12T04:12:40.540Z,11.03
2023-05-12T04:15:08.128Z,11.02
2023-05-12T04:17:35.023Z,11.06
2023-05-12T04:20:01.584Z,11.01
2023-05-12T04:22:28.120Z,10.99
2023-05-12T04:24:54.830Z,10.95
2023-05-12T04:27:21.367Z,10.94
2023-05-12T04:29:47.910Z,10.94
2023-05-12T04:32:14.546Z,10.93
2023-05-12T04:34:41.913Z,10.92
2023-05-12T04:37:08.474Z,10.92
2023-05-12T04:39:35.025Z,10.88
2023-05-12T04:42:02.161Z,10.87
2023-05-12T04:44:28.820Z,10.83
2023-05-12T04:46:56.508Z,10.79
2023-05-12T04:49:23.096Z,10.79
2023-05-12T04:51:50.834Z,10.80
2023-05-12T04:54:17.601Z,10.79
2023-05-12T04:56:44.128Z,10.79
2023-05-12T04:59:11.639Z,10.79
2023-05-12T05:01:39.427Z,10.81
2023-05-12T05:04:06.070Z,10.78
2023-05-12T05:06:32.592Z,10.78
2023-05-12T05:08:59.167Z,10.78
2023-05-12T05:11:25.926Z,10.76
2023-05-12T05:13:52.529Z,10.76
2023-05-12T05:16:19.137Z,10.80
2023-05-12T05:18:46.738Z,10.80
2023-05-12T05:21:16.529Z,10.80
2023-05-12T05:23:43.510Z,10.81
2023-05-12T05:26:10.263Z,10.83
2023-05-12T05:28:39.690Z,10.81
2023-05-12T05:31:06.641Z,10.79
2023-05-12T05:33:33.196Z,10.78
2023-05-12T05:36:00.526Z,10.78
2023-05-12T05:38:27.019Z,10.81
2023-05-12T05:40:54.686Z,10.78
2023-05-12T05:43:21.545Z,10.79
2023-05-12T05:45:49.951Z,10.79
2023-05-12T05:48:16.647Z,10.79
2023-05-12T05:50:43.320Z,10.76
2023-05-12T05:53:09.914Z,10.73
2023-05-12T05:55:36.471Z,10.75
2023-05-12T05:58:03.010Z,10.76
2023-05-12T06:00:30.056Z,10.77
2023-05-12T06:02:56.822Z,10.78
2023-05-12T06:05:23.556Z,10.78
2023-05-12T06:07:50.085Z,10.83
2023-05-12T06:10:16.668Z,10.80
2023-05-12T06:12:43.374Z,10.79
2023-05-12T06:15:11.020Z,10.83
2023-05-12T06:17:38.337Z,10.82
2023-05-12T06:20:06.592Z,10.89
2023-05-12T06:22:34.708Z,10.89
2023-05-12T06:25:02.093Z,10.90
2023-05-12T06:27:28.644Z,10.93
2023-05-12T06:29:55.219Z,10.97
2023-05-12T06:32:21.917Z,10.99
2023-05-12T06:34:48.485Z,11.01
2023-05-12T06:37:15.083Z,11.07
2023-05-12T06:39:41.780Z,11.08
2023-05-12T06:42:08.590Z,11.12
2023-05-12T06:44:35.140Z,11.13
2023-05-12T06:47:01.695Z,11.16
2023-05-12T06:49:28.399Z,11.21
2023-05-12T06:51:54.995Z,11.27
2023-05-12T06:54:21.533Z,11.30
2023-05-12T06:56:48.250Z,11.35
2023-05-12T06:59:15.348Z,11.40
2023-05-12T07:01:43.171Z,11.46
2023-05-12T07:04:10.251Z,11.52
2023-05-12T07:06:37.322Z,11.55
2023-05-12T07:09:04.190Z,11.61
2023-05-12T07:11:30.765Z,11.68
2023-05-12T07:13:57.309Z,11.75
2023-05-12T07:16:23.960Z,11.76
2023-05-12T07:18:51.190Z,11.79
2023-05-12T07:21:17.811Z,11.81
2023-05-12T07:23:44.625Z,11.88
2023-05-12T07:26:11.183Z,11.91
2023-05-12T07:28:38.294Z,11.91
2023-05-12T07:31:09.567Z,11.94
2023-05-12T07:33:36.512Z,11.95
2023-05-12T07:36:04.753Z,11.94
2023-05-12T07:38:32.176Z,11.95
2023-05-12T07:40:59.668Z,11.94
2023-05-12T07:43:26.474Z,12.00
2023-05-12T07:45:53.055Z,12.02
2023-05-12T07:48:19.588Z,12.06
2023-05-12T07:50:46.095Z,12.13
2023-05-12T07:53:12.605Z,12.15
2023-05-12T07:55:39.201Z,12.22
2023-05-12T07:58:05.695Z,12.28
2023-05-12T08:00:32.218Z,12.35
2023-05-12T08:02:58.962Z,12.51
2023-05-12T08:05:25.763Z,12.64
2023-05-12T08:07:52.506Z,12.84
2023-05-12T08:10:22.102Z,12.96
2023-05-12T08:12:48.649Z,13.06
2023-05-12T08:15:15.308Z,13.14
2023-05-12T08:17:42.200Z,13.22
2023-05-12T08:20:09.209Z,13.28
2023-05-12T08:22:35.737Z,13.35
2023-05-12T08:25:02.592Z,13.66
2023-05-12T08:27:29.821Z,13.77
2023-05-12T08:29:56.387Z,13.84
2023-05-12T08:32:23.078Z,14.04
2023-05-12T08:34:49.736Z,14.03
2023-05-12T08:37:16.501Z,14.04
2023-05-12T08:39:43.163Z,14.04
2023-05-12T08:42:18.762Z,13.88
2023-05-12T08:44:46.523Z,13.89
2023-05-12T08:47:15.632Z,13.75
2023-05-12T08:49:44.199Z,13.71
2023-05-12T08:52:12.411Z,13.77
2023-05-12T08:54:52.420Z,13.82
2023-05-12T08:57:23.215Z,13.63
2023-05-12T08:59:51.924Z,13.58
2023-05-12T09:02:21.077Z,13.73
2023-05-12T09:04:48.587Z,14.01
2023-05-12T09:07:16.081Z,14.06
2023-05-12T09:09:45.710Z,14.40
2023-05-12T09:12:16.792Z,14.51
2023-05-12T09:14:51.748Z,14.66
2023-05-12T09:17:18.780Z,14.61
2023-05-12T09:19:45.534Z,14.70
2023-05-12T09:22:14.912Z,14.61
2023-05-12T09:24:41.682Z,14.56
2023-05-12T09:27:09.822Z,14.80
2023-05-12T09:29:42.436Z,14.84
2023-05-12T09:32:14.710Z,15.24
2023-05-12T09:34:43.167Z,15.31
2023-05-12T09:37:09.917Z,15.39
2023-05-12T09:39:36.992Z,15.67
2023-05-12T09:42:03.838Z,16.13
2023-05-12T09:44:32.303Z,16.28
2023-05-12T09:47:10.346Z,16.49
2023-05-12T09:49:37.186Z,16.14
2023-05-12T09:52:05.041Z,16.20
2023-05-12T09:54:32.585Z,16.35
2023-05-12T09:57:01.634Z,16.33
2023-05-12T09:59:33.735Z,16.37
2023-05-12T10:02:02.515Z,16.25
2023-05-12T10:04:32.686Z,16.32
2023-05-12T10:06:59.538Z,16.11
2023-05-12T10:09:31.527Z,15.82
2023-05-12T10:11:58.216Z,15.45
2023-05-12T10:14:25.711Z,15.37
2023-05-12T10:16:52.829Z,15.21
2023-05-12T10:19:21.107Z,15.36
2023-05-12T10:21:48.989Z,15.57
2023-05-12T10:24:18.861Z,16.23
2023-05-12T10:26:45.707Z,16.91
2023-05-12T10:29:13.628Z,16.97
2023-05-12T10:31:40.590Z,17.88
2023-05-12T10:34:07.445Z,18.00
2023-05-12T10:36:46.512Z,17.75
2023-05-12T10:39:15.576Z,17.48
2023-05-12T10:41:42.953Z,17.64
2023-05-12T10:44:12.393Z,18.28
2023-05-12T10:46:40.661Z,18.77
2023-05-12T10:49:10.506Z,18.36
2023-05-12T10:51:43.182Z,18.13
2023-05-12T10:54:13.552Z,18.11
2023-05-12T10:56:40.287Z,18.16
2023-05-12T10:59:24.307Z,18.50
2023-05-12T11:02:06.743Z,19.24
2023-05-12T11:04:56.322Z,18.93
2023-05-12T11:07:27.147Z,18.53
2023-05-12T11:09:59.202Z,18.43
2023-05-12T11:12:31.816Z,18.64
2023-05-12T11:15:01.578Z,18.87
2023-05-12T11:17:28.668Z,18.75
2023-05-12T11:19:55.770Z,18.39
2023-05-12T11:22:23.416Z,17.98
2023-05-12T11:24:50.836Z,17.84
2023-05-12T11:27:19.863Z,17.76
2023-05-12T11:29:59.672Z,17.97
2023-05-12T11:32:27.259Z,18.84
2023-05-12T11:34:53.893Z,20.16
2023-05-12T11:37:21.363Z,20.79
2023-05-12T11:39:48.642Z,19.98
2023-05-12T11:42:17.734Z,19.20
2023-05-12T11:44:49.909Z,18.26
2023-05-12T11:47:19.128Z,17.93
2023-05-12T11:49:55.551Z,18.32
2023-05-12T11:52:23.941Z,18.76
2023-05-12T11:54:58.099Z,19.29
2023-05-12T11:57:29.675Z,19.92
2023-05-12T12:00:15.787Z,20.88
2023-05-12T12:02:43.498Z,20.40
2023-05-12T12:05:18.278Z,19.86
2023-05-12T12:07:45.355Z,19.27
2023-05-12T12:10:16.874Z,18.93
2023-05-12T12:12:44.293Z,18.83
2023-05-12T12:15:11.582Z,19.03
2023-05-12T12:17:39.827Z,20.30
2023-05-12T12:20:08.024Z,20.96
2023-05-12T12:22:35.354Z,20.04
2023-05-12T12:25:03.116Z,19.04
2023-05-12T12:27:30.048Z,18.42
2023-05-12T12:29:56.755Z,17.99
2023-05-12T12:32:23.572Z,17.71
2023-05-12T12:34:50.327Z,17.50
2023-05-12T12:37:17.229Z,17.34
2023-05-12T12:39:43.809Z,17.36
2023-05-12T12:42:10.292Z,17.58
2023-05-12T12:44:36.960Z,17.94
2023-05-12T12:47:04.324Z,18.52
2023-05-12T12:49:30.929Z,19.81
2023-05-12T12:51:57.827Z,20.39
2023-05-12T12:54:27.366Z,19.80
2023-05-12T12:56:55.503Z,19.24
2023-05-12T12:59:22.475Z,18.82
2023-05-12T13:01:49.215Z,18.47
2023-05-12T13:04:16.560Z,18.00
2023-05-12T13:06:43.156Z,17.70
2023-05-12T13:09:10.790Z,17.33
2023-05-12T13:11:37.468Z,17.21
2023-05-12T13:14:05.077Z,17.31
2023-05-12T13:16:31.852Z,17.37
2023-05-12T13:18:58.991Z,17.47
2023-05-12T13:21:25.577Z,17.57
2023-05-12T13:23:52.113Z,17.72
2023-05-12T13:26:18.707Z,17.87
2023-05-12T13:28:45.375Z,18.04
2023-05-12T13:31:12.254Z,19.28
2023-05-12T13:33:39.332Z,19.51
2023-05-12T13:36:06.255Z,19.67
2023-05-12T13:38:33.871Z,19.65
2023-05-12T13:41:00.462Z,19.56
2023-05-12T13:43:26.974Z,19.57
2023-05-12T13:45:53.545Z,20.49
2023-05-12T13:48:20.808Z,20.34
2023-05-12T13:50:48.001Z,19.81
2023-05-12T13:53:14.489Z,19.20
2023-05-12T13:55:41.409Z,18.76
2023-05-12T13:58:10.004Z,18.46
2023-05-12T14:00:36.738Z,18.24
2023-05-12T14:03:03.326Z,18.37
2023-05-12T14:05:29.899Z,19.13
2023-05-12T14:07:56.968Z,20.03
2023-05-12T14:10:23.879Z,20.42
2023-05-12T14:12:50.522Z,20.16
2023-05-12T14:15:29.151Z,19.86
2023-05-12T14:18:00.806Z,19.52
2023-05-12T14:20:27.367Z,19.27
2023-05-12T14:22:54.029Z,18.91
2023-05-12T14:25:20.758Z,18.67
2023-05-12T14:27:47.545Z,18.42
2023-05-12T14:30:14.688Z,18.19
2023-05-12T14:32:41.278Z,18.50
2023-05-12T14:35:09.772Z,19.23
2023-05-12T14:37:37.400Z,19.89
2023-05-12T14:40:04.854Z,20.31
2023-05-12T14:42:32.414Z,20.53
2023-05-12T14:44:59.358Z,20.46
2023-05-12T14:47:26.078Z,19.83
2023-05-12T14:49:52.706Z,19.39
2023-05-12T14:52:19.214Z,19.30
2023-05-12T14:54:45.868Z,19.07
2023-05-12T14:57:13.650Z,19.02
2023-05-12T14:59:40.280Z,18.86
2023-05-12T15:02:08.054Z,18.75
2023-05-12T15:04:34.754Z,18.72
2023-05-12T15:07:01.753Z,18.68
2023-05-12T15:09:28.218Z,18.63
2023-05-12T15:11:55.158Z,18.67
2023-05-12T15:14:21.752Z,18.89
2023-05-12T15:16:48.460Z,19.28
2023-05-12T15:19:15.294Z,19.58
2023-05-12T15:21:42.116Z,20.09
2023-05-12T15:24:08.644Z,20.57
2023-05-12T15:26:38.235Z,20.89
2023-05-12T15:29:06.378Z,20.83
2023-05-12T15:31:33.033Z,20.40
2023-05-12T15:33:59.770Z,20.02
2023-05-12T15:36:26.362Z,19.80
2023-05-12T15:38:52.901Z,19.46
2023-05-12T15:41:19.381Z,19.28
2023-05-12T15:43:45.851Z,19.09
2023-05-12T15:46:12.380Z,19.05
2023-05-12T15:48:39.545Z,19.04
2023-05-12T15:51:06.632Z,18.99
2023-05-12T15:53:33.436Z,19.05
2023-05-12T15:56:01.859Z,19.16
2023-05-12T15:58:29.043Z,19.35
2023-05-12T16:00:55.818Z,19.31
2023-05-12T16:03:23.653Z,19.09
2023-05-12T16:05:51.358Z,18.90
2023-05-12T16:08:18.357Z,18.82
2023-05-12T16:10:45.109Z,18.91
2023-05-12T16:13:11.698Z,19.11
2023-05-12T16:15:38.272Z,19.29
2023-05-12T16:18:06.984Z,19.42
2023-05-12T16:20:35.350Z,19.71
2023-05-12T16:23:02.545Z,20.04
2023-05-12T16:25:29.253Z,20.20
2023-05-12T16:27:56.107Z,20.17
2023-05-12T16:30:22.715Z,20.03
2023-05-12T16:32:49.413Z,19.83
2023-05-12T16:35:16.505Z,19.70
2023-05-12T16:37:43.027Z,19.52
2023-05-12T16:40:09.864Z,19.44
2023-05-12T16:42:37.356Z,19.38
2023-05-12T16:45:04.152Z,19.26
2023-05-12T16:47:30.682Z,19.06
2023-05-12T16:49:59.341Z,18.87
2023-05-12T16:52:26.723Z,18.71
2023-05-12T16:54:53.344Z,18.56
2023-05-12T16:57:20.465Z,18.37
2023-05-12T16:59:48.513Z,18.25
2023-05-12T17:02:15.532Z,18.14
2023-05-12T17:04:42.394Z,18.05
2023-05-12T17:07:09.624Z,17.96
2023-05-12T17:09:36.480Z,17.96
2023-05-12T17:12:04.707Z,18.06
2023-05-12T17:14:31.485Z,18.15
2023-05-12T17:16:58.362Z,18.25
2023-05-12T17:19:24.924Z,18.30
2023-05-12T17:21:51.506Z,18.36
2023-05-12T17:24:18.193Z,18.35
2023-05-12T17:26:45.180Z,18.34
2023-05-12T17:29:11.845Z,18.34
2023-05-12T17:31:38.838Z,18.25
2023-05-12T17:34:05.610Z,18.22
2023-05-12T17:36:32.112Z,18.16
2023-05-12T17:38:58.795Z,18.12
2023-05-12T17:41:27.635Z,18.09
2023-05-12T17:43:55.653Z,18.02
2023-05-12T17:46:23.185Z,17.95
2023-05-12T17:48:50.007Z,17.82
2023-05-12T17:51:17.042Z,17.71
2023-05-12T17:53:43.858Z,17.63
2023-05-12T17:56:10.540Z,17.54
2023-05-12T17:58:37.152Z,17.45
2023-05-12T18:01:04.044Z,17.33
2023-05-12T18:03:30.711Z,17.22
2023-05-12T18:05:57.323Z,17.09
2023-05-12T18:08:23.867Z,16.93
2023-05-12T18:10:50.674Z,16.76
2023-05-12T18:13:17.335Z,16.62
2023-05-12T18:15:43.908Z,16.48
2023-05-12T18:18:10.846Z,16.36
2023-05-12T18:20:37.960Z,16.26
2023-05-12T18:23:04.635Z,16.21
2023-05-12T18:25:31.305Z,16.19
2023-05-12T18:27:58.240Z,16.20
2023-05-12T18:30:24.806Z,16.19
2023-05-12T18:32:51.389Z,16.18
2023-05-12T18:35:18.088Z,16.33
2023-05-12T18:37:44.989Z,16.36
2023-05-12T18:40:12.136Z,16.24
2023-05-12T18:42:39.017Z,16.04
2023-05-12T18:45:06.638Z,15.73
2023-05-12T18:47:33.635Z,15.47
2023-05-12T18:50:00.392Z,15.06
2023-05-12T18:52:27.116Z,14.63
2023-05-12T18:54:53.710Z,14.18
2023-05-12T18:57:20.374Z,13.82
2023-05-12T18:59:47.009Z,13.57
2023-05-12T19:02:13.493Z,13.34
2023-05-12T19:04:40.079Z,12.99
2023-05-12T19:07:10.028Z,12.87
2023-05-12T19:09:37.294Z,12.85
2023-05-12T19:12:05.983Z,12.79
2023-05-12T19:14:32.934Z,12.76
2023-05-12T19:16:59.509Z,12.68
2023-05-12T19:19:26.222Z,12.63
2023-05-12T19:21:53.121Z,12.62
2023-05-12T19:24:19.689Z,12.55
2023-05-12T19:26:46.291Z,12.56
2023-05-12T19:29:12.821Z,12.52
2023-05-12T19:31:39.520Z,12.52
2023-05-12T19:34:07.144Z,12.55
2023-05-12T19:36:34.147Z,12.54
2023-05-12T19:39:01.160Z,12.56
2023-05-12T19:41:29.732Z,12.63
2023-05-12T19:43:56.619Z,12.61
2023-05-12T19:46:23.532Z,12.62
2023-05-12T19:48:51.778Z,12.62
2023-05-12T19:51:18.663Z,12.62
2023-05-12T19:53:45.316Z,12.66
2023-05-12T19:56:11.809Z,12.62
2023-05-12T19:58:38.441Z,12.67
2023-05-12T20:01:05.185Z,12.71
2023-05-12T20:03:32.124Z,12.71
2023-05-12T20:05:58.963Z,12.74
2023-05-12T20:08:25.527Z,12.71
2023-05-12T20:10:52.192Z,12.73
2023-05-12T20:13:18.727Z,12.70
2023-05-12T20:15:45.331Z,12.66
2023-05-12T20:18:14.582Z,12.64
2023-05-12T20:20:42.528Z,12.70
2023-05-12T20:23:09.625Z,12.69
2023-05-12T20:25:36.911Z,12.70
2023-05-12T20:28:03.835Z,12.71
2023-05-12T20:30:30.460Z,12.71
2023-05-12T20:32:57.025Z,12.73
2023-05-12T20:35:23.964Z,12.71
2023-05-12T20:37:50.648Z,12.71
2023-05-12T20:40:17.346Z,12.68
2023-05-12T20:42:46.153Z,12.67
2023-05-12T20:45:13.771Z,12.64
2023-05-12T20:47:40.597Z,12.65
2023-05-12T20:50:08.250Z,12.67
2023-05-12T20:52:39.070Z,12.68
2023-05-12T20:55:06.975Z,12.68
2023-05-12T20:57:33.539Z,12.66
2023-05-12T21:00:00.199Z,12.68
2023-05-12T21:02:28.091Z,12.68
2023-05-12T21:04:55.205Z,12.69
2023-05-12T21:07:21.935Z,12.70
2023-05-12T21:09:48.554Z,12.67
2023-05-12T21:12:15.215Z,12.64
2023-05-12T21:14:43.452Z,12.64
2023-05-12T21:17:10.746Z,12.63
2023-05-12T21:19:38.686Z,12.64
2023-05-12T21:22:06.764Z,12.62
2023-05-12T21:24:33.713Z,12.64
2023-05-12T21:27:04.849Z,12.61
2023-05-12T21:29:32.790Z,12.56
2023-05-12T21:32:00.164Z,12.61
2023-05-12T21:34:27.095Z,12.63
2023-05-12T21:36:54.676Z,12.66
2023-05-12T21:39:22.023Z,12.73
2023-05-12T21:41:48.794Z,12.78
2023-05-12T21:44:15.382Z,12.83
2023-05-12T21:46:42.727Z,12.87
2023-05-12T21:49:09.398Z,12.91
2023-05-12T21:51:36.124Z,12.92
2023-05-12T21:54:02.722Z,12.91
2023-05-12T21:56:29.373Z,12.89
2023-05-12T21:58:55.951Z,12.86
2023-05-12T22:01:22.792Z,12.82
2023-05-12T22:03:49.923Z,12.81
2023-05-12T22:06:16.892Z,12.77
2023-05-12T22:08:43.620Z,12.72
2023-05-12T22:11:11.375Z,12.70
2023-05-12T22:13:38.055Z,12.68
2023-05-12T22:16:04.900Z,12.63
2023-05-12T22:18:31.986Z,12.59
2023-05-12T22:20:59.066Z,12.58
2023-05-12T22:23:25.663Z,12.50
2023-05-12T22:25:52.359Z,12.51
2023-05-12T22:28:18.953Z,12.48
2023-05-12T22:30:45.553Z,12.49
2023-05-12T22:33:12.151Z,12.48
2023-05-12T22:35:38.685Z,12.44
2023-05-12T22:38:05.784Z,12.40
2023-05-12T22:40:33.719Z,12.37
2023-05-12T22:43:00.228Z,12.34
2023-05-12T22:45:26.828Z,12.31
2023-05-12T22:47:53.602Z,12.28
2023-05-12T22:50:20.801Z,12.26
2023-05-12T22:52:47.560Z,12.23
2023-05-12T22:55:14.210Z,12.19
2023-05-12T22:57:43.565Z,12.21
2023-05-12T23:00:10.470Z,12.20
2023-05-12T23:02:37.057Z,12.21
2023-05-12T23:05:04.229Z,12.19
2023-05-12T23:07:31.141Z,12.19
2023-05-12T23:09:57.651Z,12.16
2023-05-12T23:12:24.187Z,12.15
2023-05-12T23:14:50.741Z,12.11
2023-05-12T23:17:17.251Z,12.06
2023-05-12T23:19:43.734Z,11.99
2023-05-12T23:22:10.242Z,11.97
2023-05-12T23:24:36.733Z,11.92
2023-05-12T23:27:03.676Z,11.86
2023-05-12T23:29:30.476Z,11.79
2023-05-12T23:31:58.779Z,11.66
2023-05-12T23:34:25.775Z,11.65
2023-05-12T23:36:52.450Z,11.58
2023-05-12T23:39:19.001Z,11.53
2023-05-12T23:41:45.683Z,11.50
2023-05-12T23:44:13.004Z,11.50
2023-05-12T23:46:39.676Z,11.46
2023-05-12T23:49:06.437Z,11.40
2023-05-12T23:51:33.147Z,11.38
2023-05-12T23:53:59.709Z,11.36
2023-05-12T23:56:26.377Z,11.35
2023-05-12T23:58:52.880Z,11.32
